Time;durP1;ratioP1;P1;durP2;ratioP2;P2;SDS_P1;SDS_P2;PMS_P1;PMS_P2;Temp;Humidity;BMP_temperature;BMP_pressure;BME280_temperature;BME280_humidity;BME280_pressure;Samples;Min_cycle;Max_cycle;Signal;HPM_P1;HPM_P2
2021/12/05 00:23:39;;;;;;;37.90;26.93;;;12.10;80.90;;;;;;5145040;28;20046;-31
2021/12/05 00:26:15;;;;;;;35.57;26.73;;;11.00;84.20;;;;;;5144494;28;20600;-31
2021/12/05 00:29:11;;;;;;;50.17;35.37;;;10.50;86.00;;;;;;5144863;28;20058;-30
2021/12/05 00:40:13;;;;;;;30.05;23.00;;;12.10;83.50;;;;;;5144757;28;20055;-33
2021/12/05 00:43:08;;;;;;;31.33;23.93;;;12.60;82.30;;;;;;5144361;28;20607;-33
2021/12/05 01:02:29;;;;;;;26.47;20.40;;;14.20;78.00;;;;;;5207818;28;20076;-34
2021/12/05 01:16:05;;;;;;;37.23;26.83;;;14.40;76.80;;;;;;5221002;28;20046;-31
2021/12/05 01:18:36;;;;;;;43.47;27.77;;;14.40;76.90;;;;;;5222663;28;20048;-30
2021/12/05 01:21:10;;;;;;;38.83;26.73;;;14.40;76.90;;;;;;5207295;28;20098;-32
2021/12/05 01:26:49;;;;;;;34.97;24.93;;;14.50;77.30;;;;;;5207670;28;20116;-31
2021/12/05 01:29:30;;;;;;;30.77;23.20;;;14.50;77.10;;;;;;5207828;28;20050;-30
2021/12/05 01:37:33;;;;;;;29.47;22.60;;;14.50;76.70;;;;;;5210713;28;20501;-31
2021/12/05 01:40:32;;;;;;;27.53;22.70;;;14.50;76.70;;;;;;5211507;28;20068;-31
2021/12/05 01:54:53;;;;;;;29.37;23.13;;;14.50;76.10;;;;;;5210575;28;20128;-31
2021/12/05 02:30:55;;;;;;;28.23;22.93;;;14.50;75.90;;;;;;5210597;28;20072;-30
2021/12/05 02:36:25;;;;;;;30.73;24.03;;;14.50;75.60;;;;;;5210349;28;20045;-31
2021/12/05 02:41:56;;;;;;;34.67;25.43;;;14.50;75.20;;;;;;5167043;28;19922;-32
2021/12/05 02:44:27;;;;;;;30.40;23.17;;;14.50;75.30;;;;;;5166862;28;20051;-31
2021/12/05 02:47:05;;;;;;;30.30;22.87;;;14.50;75.10;;;;;;5166665;28;20503;-30
2021/12/05 02:49:39;;;;;;;31.20;23.73;;;14.50;75.10;;;;;;5167077;28;20058;-31
2021/12/05 02:52:10;;;;;;;;;;;14.50;75.10;;;;;;5167305;28;20074;-34
2021/12/05 02:54:47;;;;;;;29.73;22.90;;;14.50;74.90;;;;;;5166926;28;19921;-31
2021/12/05 02:57:30;;;;;;;32.27;23.37;;;14.40;74.90;;;;;;5167362;28;20043;-30
2021/12/05 03:00:08;;;;;;;;;;;14.40;75.00;;;;;;5167465;28;20452;-34
2021/12/05 03:02:42;;;;;;;30.73;24.20;;;14.40;74.80;;;;;;5166961;28;19929;-31
2021/12/05 03:05:18;;;;;;;32.77;25.17;;;14.40;74.90;;;;;;5166551;28;20065;-31
2021/12/05 03:07:56;;;;;;;30.03;23.40;;;14.40;74.90;;;;;;5166747;28;20440;-31
2021/12/05 03:10:28;;;;;;;33.23;24.00;;;14.50;75.00;;;;;;5167131;28;20058;-31
2021/12/05 03:12:59;;;;;;;32.67;25.17;;;14.40;74.80;;;;;;5166697;28;20096;-31
2021/12/05 03:15:30;;;;;;;31.13;24.57;;;14.40;74.80;;;;;;5181982;28;20148;-31
2021/12/05 03:18:01;;;;;;;32.27;24.07;;;14.40;74.60;;;;;;5209383;28;20054;-31
2021/12/05 03:20:32;;;;;;;31.50;24.43;;;14.40;74.60;;;;;;5208325;28;20041;-31
2021/12/05 03:23:03;;;;;;;32.67;25.87;;;14.40;74.80;;;;;;5225169;28;20353;-31
2021/12/05 03:25:34;;;;;;;32.13;24.10;;;14.40;75.20;;;;;;5209361;28;20103;-31
2021/12/05 03:28:05;;;;;;;32.93;25.60;;;14.40;75.50;;;;;;5209145;28;20491;-31
2021/12/05 03:30:36;;;;;;;32.40;24.23;;;14.40;75.40;;;;;;5209151;28;20069;-31
2021/12/05 03:33:07;;;;;;;36.77;25.17;;;14.40;75.10;;;;;;5209267;28;20493;-31
2021/12/05 03:35:38;;;;;;;30.03;24.10;;;14.40;75.00;;;;;;5208975;28;20497;-33
2021/12/05 03:38:09;;;;;;;28.80;22.53;;;14.40;75.00;;;;;;5224403;28;20057;-32
2021/12/05 03:40:40;;;;;;;32.40;25.13;;;14.40;74.80;;;;;;5208869;28;20061;-31
2021/12/05 03:43:13;;;;;;;32.73;24.27;;;14.40;74.70;;;;;;5208857;28;20479;-31
2021/12/05 03:45:47;;;;;;;30.97;23.27;;;14.40;74.60;;;;;;5208653;28;20060;-31
2021/12/05 03:48:18;;;;;;;;;;;14.40;74.50;;;;;;5209901;28;20037;-31
2021/12/05 03:50:49;;;;;;;33.87;22.97;;;14.40;74.30;;;;;;5209187;28;19921;-32
2021/12/05 03:53:20;;;;;;;33.47;24.40;;;14.40;74.40;;;;;;5224884;28;20052;-31
2021/12/05 03:55:52;;;;;;;32.07;25.13;;;14.40;74.50;;;;;;5223950;28;20041;-30
2021/12/05 03:58:23;;;;;;;33.37;25.90;;;14.40;74.20;;;;;;5208773;28;20068;-31
2021/12/05 04:00:55;;;;;;;34.63;24.67;;;14.40;74.20;;;;;;5223025;28;20487;-31
2021/12/05 04:03:26;;;;;;;33.03;25.10;;;14.40;74.40;;;;;;5224389;28;20053;-31
2021/12/05 04:05:58;;;;;;;33.20;24.87;;;14.40;74.40;;;;;;5208419;28;20041;-31
2021/12/05 04:08:29;;;;;;;30.47;24.10;;;14.40;74.50;;;;;;5207175;28;20407;-31
2021/12/05 04:11:04;;;;;;;31.40;24.73;;;14.40;74.50;;;;;;5223682;28;20045;-31
2021/12/05 04:13:35;;;;;;;31.70;23.43;;;14.40;74.70;;;;;;5223732;28;20098;-32
2021/12/05 04:16:06;;;;;;;30.57;24.07;;;14.40;74.70;;;;;;5208357;28;20056;-31
2021/12/05 04:18:37;;;;;;;30.97;24.87;;;14.40;74.80;;;;;;5208391;28;20053;-31
2021/12/05 04:21:09;;;;;;;30.97;25.50;;;14.40;75.00;;;;;;5208061;28;20041;-31
2021/12/05 04:23:40;;;;;;;33.37;25.27;;;14.40;74.90;;;;;;5207870;28;20045;-30
2021/12/05 04:26:11;;;;;;;32.13;24.07;;;14.40;74.80;;;;;;5207776;28;20056;-33
2021/12/05 04:28:42;;;;;;;33.80;25.60;;;14.40;74.90;;;;;;5207993;28;20041;-29
2021/12/05 04:31:14;;;;;;;30.67;24.77;;;14.40;75.00;;;;;;5223333;28;20041;-31
2021/12/05 04:33:45;;;;;;;32.03;24.10;;;14.40;74.90;;;;;;5223141;28;20041;-31
2021/12/05 04:36:17;;;;;;;32.80;25.67;;;14.40;74.90;;;;;;5208113;28;20060;-33
2021/12/05 04:38:48;;;;;;;35.53;27.70;;;14.30;74.90;;;;;;5207607;28;20041;-30
2021/12/05 04:41:19;;;;;;;33.57;25.00;;;14.30;75.20;;;;;;5207722;28;20160;-30
2021/12/05 04:43:51;;;;;;;32.20;25.23;;;14.30;75.70;;;;;;5222564;28;20505;-34
2021/12/05 04:46:23;;;;;;;36.03;26.07;;;14.30;75.70;;;;;;5206852;28;20050;-32
2021/12/05 04:48:54;;;;;;;36.03;26.03;;;14.30;75.50;;;;;;5207915;28;20057;-31
2021/12/05 04:51:31;;;;;;;34.93;26.80;;;14.40;75.30;;;;;;5207663;28;20045;-33
2021/12/05 04:54:02;;;;;;;32.37;25.33;;;14.40;75.20;;;;;;5207951;28;20559;-34
2021/12/05 04:56:33;;;;;;;32.33;25.43;;;14.40;75.20;;;;;;5207384;28;20132;-31
2021/12/05 04:59:11;;;;;;;31.50;25.70;;;14.40;75.20;;;;;;5207809;28;20116;-31
2021/12/05 05:01:47;;;;;;;32.13;25.33;;;14.40;75.00;;;;;;5207700;28;20042;-33
2021/12/05 05:04:26;;;;;;;35.90;26.80;;;14.40;75.00;;;;;;5207593;28;20135;-31
2021/12/05 05:07:04;;;;;;;35.53;27.23;;;14.40;75.00;;;;;;5222221;28;20117;-31
2021/12/05 05:09:35;;;;;;;33.40;25.37;;;14.40;75.00;;;;;;5207104;28;20408;-30
2021/12/05 05:12:07;;;;;;;34.67;26.33;;;14.40;75.00;;;;;;5207081;28;20117;-34
2021/12/05 05:14:38;;;;;;;33.87;25.70;;;14.40;74.90;;;;;;5206143;28;20446;-30
2021/12/05 05:17:09;;;;;;;33.00;26.07;;;14.40;74.90;;;;;;5222418;28;20132;-31
2021/12/05 05:19:58;;;;;;;36.07;27.17;;;14.40;74.80;;;;;;5205855;28;20128;-31
2021/12/05 05:22:49;;;;;;;35.23;27.33;;;14.40;74.80;;;;;;5220701;28;20068;-31
2021/12/05 05:39:30;;;;;;;35.20;27.40;;;14.40;74.90;;;;;;5207148;28;20052;-31
2021/12/05 05:47:28;;;;;;;33.47;25.47;;;14.30;75.40;;;;;;5207151;28;20052;-30
2021/12/05 05:49:59;;;;;;;33.73;25.27;;;14.30;75.40;;;;;;5206963;28;20399;-31
2021/12/05 05:52:30;;;;;;;34.47;25.27;;;14.30;75.60;;;;;;5206966;28;20041;-33
2021/12/05 05:55:02;;;;;;;35.73;27.03;;;14.30;75.60;;;;;;5222093;28;20069;-31
2021/12/05 05:58:01;;;;;;;34.47;25.80;;;14.20;75.60;;;;;;5206868;28;20117;-30
2021/12/05 06:00:40;;;;;;;31.37;24.83;;;14.20;75.80;;;;;;5207013;28;20527;-29
2021/12/05 06:03:23;;;;;;;33.90;25.77;;;14.30;75.80;;;;;;5210914;28;20098;-30
2021/12/05 06:05:58;;;;;;;39.22;27.48;;;14.30;75.70;;;;;;5196708;28;20069;-32
2021/12/05 06:08:30;;;;;;;33.50;25.13;;;14.40;75.60;;;;;;5196957;28;20607;-33
2021/12/05 06:11:05;;;;;;;30.67;23.43;;;14.40;76.00;;;;;;5219479;28;20470;-33
2021/12/05 06:13:37;;;;;;;32.13;25.80;;;13.70;74.60;;;;;;5195120;28;20037;-32
2021/12/05 06:16:09;;;;;;;36.17;27.37;;;11.80;78.40;;;;;;5202203;28;20041;-30
2021/12/05 06:18:40;;;;;;;36.70;27.63;;;10.80;80.90;;;;;;5203157;28;20049;-29
2021/12/05 06:21:12;;;;;;;37.73;27.27;;;10.30;82.30;;;;;;5219801;28;20030;-30
2021/12/05 06:23:43;;;;;;;34.87;27.43;;;10.00;83.10;;;;;;5222184;28;20080;-30
2021/12/05 06:26:20;;;;;;;36.73;27.20;;;9.80;83.70;;;;;;5207879;28;20041;-32
2021/12/05 06:29:39;;;;;;;40.73;28.33;;;9.70;84.10;;;;;;5208367;28;20398;-30
2021/12/05 06:47:44;;;;;;;36.73;27.27;;;11.70;80.90;;;;;;5210134;28;20045;-29
2021/12/05 06:50:17;;;;;;;38.00;27.33;;;12.10;80.00;;;;;;5189358;28;20125;-33
2021/12/05 06:52:48;;;;;;;35.08;25.75;;;12.40;79.40;;;;;;5206584;28;20557;-30
2021/12/05 06:55:19;;;;;;;34.87;27.60;;;12.60;78.80;;;;;;5208984;28;20122;-30
2021/12/05 06:57:50;;;;;;;36.00;27.03;;;12.80;78.50;;;;;;5191625;28;20087;-31
2021/12/05 07:00:23;;;;;;;36.40;26.23;;;13.00;78.10;;;;;;5208568;28;20116;-30
2021/12/05 07:02:54;;;;;;;48.75;37.33;;;13.10;77.80;;;;;;5209651;28;20498;-30
2021/12/05 07:08:39;;;;;;;37.50;32.53;;;13.50;77.30;;;;;;5146438;28;20058;-31
2021/12/05 07:19:25;;;;;;;42.67;38.07;;;14.10;76.10;;;;;;5131393;28;20047;-31
2021/12/05 07:22:22;;;;;;;37.40;30.27;;;14.20;76.00;;;;;;5146401;28;20110;-30
2021/12/05 07:25:00;;;;;;;36.87;28.60;;;14.30;75.80;;;;;;5145789;28;20138;-33
2021/12/05 07:43:58;;;;;;;34.43;27.27;;;14.30;75.70;;;;;;5187090;28;20056;-31
2021/12/05 07:46:30;;;;;;;37.33;26.87;;;14.30;75.10;;;;;;5188501;28;20056;-31
2021/12/05 07:49:00;;;;;;;35.30;26.97;;;14.30;75.10;;;;;;5187508;28;20041;-34
2021/12/05 07:51:32;;;;;;;33.80;26.33;;;14.30;75.10;;;;;;5188086;28;20404;-31
2021/12/05 07:56:43;;;;;;;31.90;26.23;;;14.30;75.10;;;;;;5188094;28;20125;-31
2021/12/05 07:59:34;;;;;;;31.20;24.07;;;14.30;75.00;;;;;;5187324;28;20072;-31
2021/12/05 08:16:17;;;;;;;31.73;26.20;;;14.40;75.20;;;;;;5208583;28;20048;-32
2021/12/05 08:18:48;;;;;;;35.10;27.70;;;14.40;75.10;;;;;;5208514;28;20087;-30
2021/12/05 08:21:19;;;;;;;33.43;26.90;;;14.40;75.30;;;;;;5208442;28;20486;-31
2021/12/05 08:23:50;;;;;;;31.53;25.40;;;14.40;75.10;;;;;;5207857;28;20398;-34
2021/12/05 08:26:26;;;;;;;34.80;25.40;;;14.40;75.10;;;;;;5208189;28;20045;-31
2021/12/05 08:29:05;;;;;;;33.50;24.67;;;14.40;75.30;;;;;;5207600;28;20499;-31
2021/12/05 08:43:32;;;;;;;40.90;30.93;;;14.60;75.60;;;;;;5144945;28;20488;-31
2021/12/05 09:38:34;;;;;;;163.90;101.23;;;11.80;83.00;;;;;;5114046;28;20055;-30
2021/12/05 10:02:37;;;;;;;73.47;55.87;;;13.60;78.50;;;;;;5207514;28;20050;-32
2021/12/05 10:11:08;;;;;;;59.00;46.63;;;13.70;77.90;;;;;;5185668;28;20129;-30
2021/12/05 10:13:57;;;;;;;38.47;32.77;;;13.70;78.00;;;;;;5185532;28;20061;-30
2021/12/05 10:16:49;;;;;;;41.50;34.10;;;13.80;77.80;;;;;;5185584;28;20563;-30
2021/12/05 10:37:20;;;;;;;48.00;39.20;;;14.70;78.00;;;;;;5194719;28;20056;-31
2021/12/05 10:40:18;;;;;;;38.53;31.15;;;14.70;78.00;;;;;;5207440;28;20108;-30
2021/12/05 10:42:51;;;;;;;36.87;32.50;;;14.70;78.00;;;;;;5202417;28;20448;-31
2021/12/05 10:45:40;;;;;;;39.67;31.53;;;14.70;78.50;;;;;;5209493;28;20380;-31
2021/12/05 10:48:25;;;;;;;42.60;33.87;;;14.70;78.40;;;;;;5210013;28;20073;-30
2021/12/05 10:51:00;;;;;;;43.97;32.43;;;14.80;78.60;;;;;;5208895;28;20508;-29
2021/12/05 10:53:42;;;;;;;42.90;38.23;;;14.80;78.80;;;;;;5210585;28;20084;-32
2021/12/05 10:56:20;;;;;;;38.43;33.17;;;14.80;78.80;;;;;;5210150;28;20046;-32
2021/12/05 10:59:07;;;;;;;35.47;29.90;;;14.80;78.80;;;;;;5209951;28;20049;-32
2021/12/05 11:01:56;;;;;;;36.93;31.57;;;14.90;78.70;;;;;;5210049;28;20419;-32
2021/12/05 11:04:32;;;;;;;40.90;36.03;;;14.90;78.70;;;;;;5208576;28;20503;-34
2021/12/05 11:07:07;;;;;;;48.20;43.20;;;15.00;78.80;;;;;;5192615;28;20046;-33
2021/12/05 11:09:42;;;;;;;37.30;32.97;;;15.00;78.70;;;;;;5207805;28;20501;-31
2021/12/05 11:12:14;;;;;;;35.07;30.43;;;15.00;78.70;;;;;;5208363;28;20047;-31
2021/12/05 11:14:49;;;;;;;29.60;25.95;;;15.10;78.80;;;;;;5209287;28;20049;-30
2021/12/05 11:17:28;;;;;;;36.07;30.93;;;14.30;78.90;;;;;;5209938;28;19921;-30
2021/12/05 11:20:33;;;;;;;36.57;30.67;;;12.50;84.10;;;;;;5208046;28;20037;-30
2021/12/05 11:23:04;;;;;;;41.63;32.30;;;11.30;86.70;;;;;;5185604;28;20050;-30
2021/12/05 11:25:41;;;;;;;46.50;34.63;;;10.80;88.60;;;;;;5186102;28;20415;-30
2021/12/05 11:28:16;;;;;;;44.30;35.50;;;10.50;89.40;;;;;;5170990;28;20148;-30
2021/12/05 11:30:47;;;;;;;39.67;33.20;;;10.30;90.10;;;;;;5186709;28;20137;-30
2021/12/05 11:33:20;;;;;;;46.77;39.03;;;10.20;90.20;;;;;;5170162;28;20173;-30
2021/12/05 11:35:56;;;;;;;53.17;42.97;;;10.00;90.40;;;;;;5169639;28;20070;-30
2021/12/05 11:38:29;;;;;;;46.80;36.63;;;10.00;90.60;;;;;;5186574;28;20504;-30
2021/12/05 11:41:04;;;;;;;42.63;34.17;;;9.90;90.60;;;;;;5169845;28;20050;-30
2021/12/05 11:43:52;;;;;;;44.67;35.13;;;9.80;90.80;;;;;;5170540;28;20582;-30
2021/12/05 11:46:28;;;;;;;44.93;36.73;;;9.80;90.70;;;;;;5186494;28;20058;-30
2021/12/05 11:49:02;;;;;;;52.40;45.67;;;9.80;90.90;;;;;;5186205;28;20556;-30
2021/12/05 11:51:36;;;;;;;49.03;41.57;;;9.70;90.70;;;;;;5185803;28;20491;-30
2021/12/05 11:54:16;;;;;;;42.93;34.07;;;9.70;90.80;;;;;;5153874;28;20511;-30
2021/12/05 11:56:53;;;;;;;49.90;41.57;;;9.60;90.90;;;;;;5185999;28;20484;-30
2021/12/05 11:59:33;;;;;;;46.77;37.17;;;9.60;91.10;;;;;;5204868;28;20495;-30
2021/12/05 12:02:12;;;;;;;44.27;34.57;;;9.60;91.00;;;;;;5207724;28;20045;-30
2021/12/05 12:04:45;;;;;;;45.33;37.90;;;9.60;91.10;;;;;;5208002;28;20383;-30
2021/12/05 12:07:23;;;;;;;41.60;35.08;;;9.50;91.20;;;;;;5208409;28;20376;-30
2021/12/05 12:09:57;;;;;;;48.40;36.73;;;9.50;91.40;;;;;;5208376;28;20068;-30
2021/12/05 12:12:29;;;;;;;47.63;38.77;;;9.50;91.40;;;;;;5208392;28;20095;-30
2021/12/05 12:15:00;;;;;;;52.83;42.03;;;9.50;91.60;;;;;;5208093;28;20049;-30
2021/12/05 12:17:31;;;;;;;42.90;35.33;;;9.40;91.40;;;;;;5208386;28;20044;-30
2021/12/05 12:20:03;;;;;;;44.13;35.37;;;9.40;91.80;;;;;;5207362;28;20073;-30
2021/12/05 12:22:35;;;;;;;;;;;9.40;91.40;;;;;;5208725;28;20050;-30
2021/12/05 12:25:12;;;;;;;45.00;37.27;;;9.40;91.50;;;;;;5208056;28;19925;-30
2021/12/05 12:27:44;;;;;;;45.77;37.03;;;9.40;91.80;;;;;;5208232;28;20041;-30
2021/12/05 12:30:28;;;;;;;47.22;37.22;;;9.30;91.70;;;;;;5207992;28;20495;-30
2021/12/05 12:33:03;;;;;;;47.03;35.25;;;9.30;92.00;;;;;;5207343;28;20052;-30
2021/12/05 12:35:34;;;;;;;46.07;34.90;;;9.30;92.30;;;;;;5190589;28;20103;-30
2021/12/05 12:38:08;;;;;;;53.93;42.93;;;9.20;91.90;;;;;;5208231;28;20045;-30
2021/12/05 12:40:43;;;;;;;40.43;33.37;;;9.20;91.90;;;;;;5207821;28;20508;-30
2021/12/05 12:43:35;;;;;;;40.10;32.77;;;9.30;92.00;;;;;;5207521;28;20045;-30
2021/12/05 12:46:15;;;;;;;;;;;9.20;92.00;;;;;;5206878;28;20049;-30
2021/12/05 12:48:47;;;;;;;;;;;9.20;92.40;;;;;;5207212;28;20286;-30
2021/12/05 12:51:32;;;;;;;45.10;35.67;;;9.20;92.30;;;;;;5222655;28;19960;-30
2021/12/05 12:54:07;;;;;;;;;;;9.10;92.20;;;;;;5208121;28;19932;-30
2021/12/05 12:56:40;;;;;;;;;;;9.10;92.40;;;;;;5208218;28;20024;-30
2021/12/05 12:59:14;;;;;;;;;;;9.10;92.60;;;;;;5208248;28;20020;-30
2021/12/05 13:12:56;;;;;;;;;;;9.10;92.30;;;;;;5175007;28;19932;-30
2021/12/05 13:15:32;;;;;;;;;;;9.10;92.30;;;;;;5156568;28;20407;-30
2021/12/05 13:18:05;;;;;;;;;;;9.00;92.20;;;;;;5177240;28;19926;-30
2021/12/05 13:20:39;;;;;;;;;;;9.00;92.10;;;;;;5176115;28;19932;-30
2021/12/05 13:23:14;;;;;;;;;;;9.00;92.20;;;;;;5172453;28;20398;-30
2021/12/05 13:26:01;;;;;;;;;;;9.00;92.20;;;;;;5175854;28;19932;-30
2021/12/05 13:28:45;;;;;;;;;;;9.00;92.30;;;;;;5173465;28;19938;-30
2021/12/05 13:31:28;;;;;;;;;;;9.00;92.30;;;;;;5167317;28;19972;-30
2021/12/05 13:34:16;;;;;;;;;;;9.00;92.30;;;;;;5152922;28;19930;-30
2021/12/05 13:36:50;;;;;;;;;;;9.00;92.40;;;;;;5152715;28;19932;-30
2021/12/05 13:39:40;;;;;;;;;;;9.00;92.20;;;;;;5173566;28;20341;-30
2021/12/05 13:42:19;;;;;;;;;;;9.00;92.40;;;;;;5176194;28;19932;-30
2021/12/05 13:44:58;;;;;;;;;;;9.00;92.40;;;;;;5168573;28;19926;-30
2021/12/05 13:47:39;;;;;;;;;;;8.90;92.30;;;;;;5201385;28;19925;-30
2021/12/05 13:50:16;;;;;;;;;;;9.00;92.50;;;;;;5211461;28;19925;-30
2021/12/05 13:52:47;;;;;;;;;;;8.90;92.40;;;;;;5211791;28;19932;-30
2021/12/05 13:55:31;;;;;;;;;;;8.90;92.60;;;;;;5226411;28;19964;-30
2021/12/05 13:58:32;;;;;;;60.20;41.47;;;8.90;92.70;;;;;;5210954;28;19947;-30
2021/12/05 14:01:04;;;;;;;49.73;34.13;;;9.50;92.50;;;;;;5210673;28;20037;-30
2021/12/05 14:03:48;;;;;;;136.40;75.03;;;10.10;91.70;;;;;;5210140;28;20046;-31
2021/12/05 14:06:53;;;;;;;128.47;74.13;;;10.70;90.90;;;;;;5209765;28;20045;-31
2021/12/05 14:09:44;;;;;;;212.27;116.50;;;11.20;90.20;;;;;;5185720;28;20557;-31
2021/12/05 14:12:31;;;;;;;214.77;124.90;;;11.70;89.20;;;;;;5222936;28;20044;-31
2021/12/05 14:15:05;;;;;;;141.10;84.17;;;12.00;88.40;;;;;;5208906;28;20049;-31
2021/12/05 14:17:39;;;;;;;100.77;67.30;;;12.30;88.00;;;;;;5207958;28;20045;-31
2021/12/05 14:20:11;;;;;;;64.03;47.70;;;12.40;87.40;;;;;;5208825;28;20056;-31
2021/12/05 14:22:44;;;;;;;94.33;74.23;;;12.60;87.00;;;;;;5209920;28;20384;-31
2021/12/05 14:25:22;;;;;;;83.07;70.87;;;12.80;86.50;;;;;;5207180;28;20033;-31
2021/12/05 14:28:01;;;;;;;78.23;65.87;;;12.90;85.90;;;;;;5199625;28;20045;-31
2021/12/05 14:30:34;;;;;;;56.60;47.50;;;13.00;85.30;;;;;;5207181;28;20049;-31
2021/12/05 14:33:06;;;;;;;51.07;40.67;;;13.10;84.90;;;;;;5208456;28;20411;-31
2021/12/05 14:35:39;;;;;;;55.87;42.47;;;13.20;84.60;;;;;;5208341;28;20050;-31
2021/12/05 14:38:11;;;;;;;61.53;47.33;;;13.20;84.40;;;;;;5208538;28;20045;-31
2021/12/05 14:40:43;;;;;;;51.67;44.50;;;13.30;84.50;;;;;;5209427;28;20048;-31
2021/12/05 14:43:19;;;;;;;57.60;48.93;;;13.30;84.30;;;;;;5208827;28;20061;-33
2021/12/05 14:45:51;;;;;;;81.00;63.37;;;13.40;84.00;;;;;;5198958;28;20065;-31
2021/12/05 14:48:22;;;;;;;45.67;37.10;;;13.40;83.90;;;;;;5205716;28;20509;-31
2021/12/05 14:50:53;;;;;;;47.63;39.57;;;13.50;83.80;;;;;;5223094;28;20491;-31
2021/12/05 14:53:24;;;;;;;53.63;44.37;;;13.50;83.70;;;;;;5223194;28;20395;-31
2021/12/05 14:55:58;;;;;;;40.37;34.37;;;13.60;83.60;;;;;;5223145;28;20041;-31
2021/12/05 14:58:30;;;;;;;39.30;30.87;;;13.60;83.60;;;;;;5221470;28;20045;-31
2021/12/05 15:01:02;;;;;;;57.30;36.30;;;13.60;83.40;;;;;;5190346;28;20403;-31
2021/12/05 15:03:35;;;;;;;;;;;13.60;83.30;;;;;;5206212;28;20041;-31
2021/12/05 15:06:18;;;;;;;47.57;41.80;;;13.70;83.10;;;;;;5206029;28;19921;-34
2021/12/05 15:08:51;;;;;;;42.30;33.77;;;12.90;83.30;;;;;;5187270;28;20073;-31
2021/12/05 15:11:22;;;;;;;41.93;33.87;;;11.20;87.60;;;;;;5199960;28;20056;-30
2021/12/05 15:14:05;;;;;;;38.03;30.87;;;10.40;90.10;;;;;;5207380;28;20041;-32
2021/12/05 15:16:36;;;;;;;71.93;56.80;;;10.00;90.80;;;;;;5222480;28;20045;-30
2021/12/05 15:19:14;;;;;;;41.37;34.03;;;9.70;91.10;;;;;;5207230;28;20046;-31
2021/12/05 15:21:44;;;;;;;37.13;30.70;;;9.60;91.40;;;;;;5205797;28;20045;-32
2021/12/05 15:24:16;;;;;;;143.87;106.10;;;9.40;91.70;;;;;;5222394;28;20502;-33
2021/12/05 15:26:47;;;;;;;39.50;29.90;;;9.40;91.70;;;;;;5206973;28;20037;-31
2021/12/05 15:29:19;;;;;;;73.93;54.57;;;9.20;91.80;;;;;;5207017;28;20522;-31
2021/12/05 15:31:50;;;;;;;42.70;33.53;;;9.20;91.80;;;;;;5221974;28;20403;-33
2021/12/05 15:34:30;;;;;;;48.07;35.77;;;9.10;92.00;;;;;;5207167;28;20042;-31
2021/12/05 15:37:12;;;;;;;39.13;30.80;;;9.10;92.10;;;;;;5222047;28;20045;-32
2021/12/05 15:39:47;;;;;;;37.93;29.50;;;9.00;92.40;;;;;;5205467;28;20080;-33
2021/12/05 15:42:28;;;;;;;43.70;33.30;;;9.00;92.30;;;;;;5206648;28;20468;-29
2021/12/05 15:45:02;;;;;;;76.07;51.07;;;9.00;92.30;;;;;;5205499;28;19929;-29
2021/12/05 15:47:34;;;;;;;40.33;29.50;;;8.90;92.20;;;;;;5206344;28;20045;-31
2021/12/05 15:50:10;;;;;;;44.20;32.13;;;8.90;92.40;;;;;;5206566;28;20400;-32
2021/12/05 15:52:58;;;;;;;50.03;35.80;;;9.00;92.20;;;;;;5204925;28;20169;-29
2021/12/05 15:55:39;;;;;;;39.47;30.57;;;9.00;92.20;;;;;;5206225;28;20046;-29
2021/12/05 15:58:20;;;;;;;36.10;28.43;;;9.10;92.30;;;;;;5206273;28;20041;-32
2021/12/05 16:00:59;;;;;;;38.95;29.23;;;9.10;92.00;;;;;;5206236;28;20084;-32
2021/12/05 16:03:43;;;;;;;36.40;29.17;;;9.10;92.10;;;;;;5205349;28;20065;-30
2021/12/05 16:06:16;;;;;;;43.87;33.33;;;9.10;92.10;;;;;;5204943;28;20045;-32
2021/12/05 16:08:49;;;;;;;41.88;32.78;;;9.10;92.00;;;;;;5198143;28;20070;-31
2021/12/05 16:11:21;;;;;;;38.37;30.57;;;9.00;92.30;;;;;;5197334;28;20159;-33
2021/12/05 16:13:52;;;;;;;39.37;32.30;;;9.00;92.10;;;;;;5221395;28;20052;-31
2021/12/05 16:16:34;;;;;;;40.27;30.83;;;9.00;92.20;;;;;;5220910;28;20050;-29
2021/12/05 16:19:08;;;;;;;;;;;8.90;92.30;;;;;;5194372;28;20041;-33
2021/12/05 16:21:39;;;;;;;39.50;29.53;;;8.90;92.30;;;;;;5204770;28;19920;-34
2021/12/05 16:24:18;;;;;;;45.33;34.10;;;9.30;92.30;;;;;;5202121;28;20041;-33
2021/12/05 16:26:53;;;;;;;39.30;28.80;;;9.90;91.60;;;;;;5205662;28;20063;-30
2021/12/05 16:29:29;;;;;;;34.33;26.73;;;10.50;91.00;;;;;;5204389;28;20533;-31
2021/12/05 16:35:46;;;;;;;38.87;29.73;;;11.30;89.60;;;;;;5143768;28;20054;-31
2021/12/05 16:38:33;;;;;;;37.23;28.87;;;11.70;88.40;;;;;;5144055;28;20043;-33
2021/12/05 16:41:20;;;;;;;42.17;32.10;;;12.00;87.70;;;;;;5110472;28;20055;-30
2021/12/05 16:44:03;;;;;;;47.30;35.27;;;12.20;87.30;;;;;;5110568;28;20054;-31
2021/12/05 16:46:36;;;;;;;53.77;38.87;;;12.40;86.80;;;;;;5127295;28;20043;-31
2021/12/05 16:49:11;;;;;;;59.13;41.50;;;12.60;86.30;;;;;;5119592;28;20069;-31
2021/12/05 16:51:58;;;;;;;66.47;44.87;;;12.70;85.90;;;;;;5143437;28;20078;-31
2021/12/05 16:54:34;;;;;;;68.37;48.40;;;12.80;85.50;;;;;;5143712;28;20109;-30
2021/12/05 16:57:12;;;;;;;64.13;47.20;;;13.00;85.20;;;;;;5128156;28;20134;-31
2021/12/05 16:59:49;;;;;;;68.17;46.03;;;13.10;84.90;;;;;;5128111;28;20055;-31
2021/12/05 17:02:29;;;;;;;61.70;41.93;;;13.20;84.60;;;;;;5128287;28;20516;-30
2021/12/05 17:05:18;;;;;;;55.10;40.13;;;13.30;84.30;;;;;;5143676;28;20043;-31
2021/12/05 17:08:25;;;;;;;60.90;43.20;;;13.40;84.10;;;;;;5112154;28;20576;-31
2021/12/05 17:11:17;;;;;;;61.17;42.33;;;13.40;83.80;;;;;;5127620;28;20472;-31
2021/12/05 17:13:52;;;;;;;49.43;37.53;;;13.50;83.60;;;;;;5143572;28;20486;-31
2021/12/05 17:16:27;;;;;;;50.80;34.57;;;13.50;83.20;;;;;;5143562;28;20047;-31
2021/12/05 17:19:08;;;;;;;45.07;33.43;;;13.50;83.10;;;;;;5143133;28;20142;-31
2021/12/05 17:21:47;;;;;;;47.97;35.33;;;13.60;83.10;;;;;;5133819;28;20082;-31
2021/12/05 17:24:20;;;;;;;41.10;31.37;;;13.60;82.90;;;;;;5143219;28;20043;-31
2021/12/05 17:26:55;;;;;;;41.63;31.30;;;13.60;82.90;;;;;;5143115;28;20139;-31
2021/12/05 17:29:37;;;;;;;42.00;30.90;;;13.60;82.70;;;;;;5143251;28;20058;-31
2021/12/05 17:32:23;;;;;;;41.80;31.70;;;13.60;82.70;;;;;;5187166;28;20045;-34
2021/12/05 17:34:57;;;;;;;47.00;35.80;;;13.60;83.10;;;;;;5203374;28;20041;-33
2021/12/05 17:37:32;;;;;;;46.23;37.63;;;13.60;82.70;;;;;;5206408;28;20113;-31
2021/12/05 17:40:06;;;;;;;52.77;41.23;;;13.60;82.60;;;;;;5206727;28;20045;-30
2021/12/05 17:42:39;;;;;;;49.63;39.37;;;13.70;82.60;;;;;;5206075;28;20445;-30
2021/12/05 17:45:11;;;;;;;45.60;37.70;;;13.70;83.00;;;;;;5206069;28;20054;-33
2021/12/05 17:47:42;;;;;;;46.50;36.30;;;13.70;82.50;;;;;;5189234;28;20152;-30
2021/12/05 17:50:19;;;;;;;50.60;36.03;;;13.70;82.50;;;;;;5186198;28;20116;-31
2021/12/05 17:52:52;;;;;;;49.63;33.20;;;13.70;82.50;;;;;;5184838;28;20562;-32
2021/12/05 17:55:36;;;;;;;40.90;31.23;;;13.70;82.50;;;;;;5198611;28;20045;-32
2021/12/05 17:58:22;;;;;;;52.20;37.47;;;13.70;82.30;;;;;;5185041;28;20069;-31
2021/12/05 18:02:41;;;;;;;44.37;32.63;;;13.70;82.40;;;;;;5186525;28;20448;-33
2021/12/05 18:03:52;;;;;;;38.90;29.73;;;13.70;82.30;;;;;;5204397;28;20062;-33
2021/12/05 18:06:24;;;;;;;33.35;26.88;;;13.70;82.20;;;;;;5188085;28;20115;-31
2021/12/05 18:08:55;;;;;;;47.60;32.97;;;13.80;82.20;;;;;;5188264;28;20054;-31
2021/12/05 18:11:26;;;;;;;33.30;27.53;;;13.70;82.10;;;;;;5186029;28;20171;-31
2021/12/05 18:13:58;;;;;;;32.73;25.60;;;13.80;82.20;;;;;;5208457;28;20191;-32
2021/12/05 18:16:31;;;;;;;28.23;22.90;;;13.70;82.10;;;;;;5224812;28;20505;-31
2021/12/05 18:19:07;;;;;;;28.42;23.08;;;13.80;82.00;;;;;;5226506;28;20453;-31
2021/12/05 18:21:40;;;;;;;31.60;25.30;;;13.80;81.90;;;;;;5212337;28;20106;-32
2021/12/05 18:24:14;;;;;;;31.80;24.15;;;13.80;81.90;;;;;;5212639;28;20411;-31
2021/12/05 18:26:45;;;;;;;30.37;24.80;;;13.80;82.00;;;;;;5211987;28;20092;-33
2021/12/05 18:29:19;;;;;;;31.07;26.73;;;13.80;82.10;;;;;;5223793;28;20061;-31
2021/12/05 18:31:56;;;;;;;31.63;25.80;;;13.80;82.30;;;;;;5184178;28;20045;-31
2021/12/05 18:34:46;;;;;;;31.33;26.23;;;13.80;82.00;;;;;;5206257;28;20069;-30
2021/12/05 18:37:19;;;;;;;31.17;25.23;;;13.90;81.80;;;;;;5211439;28;20093;-31
2021/12/05 18:39:51;;;;;;;39.10;30.03;;;13.90;81.70;;;;;;5204150;28;20129;-31
2021/12/05 18:42:23;;;;;;;41.13;31.00;;;14.00;81.70;;;;;;5207984;28;20120;-31
2021/12/05 18:44:59;;;;;;;33.30;26.73;;;14.00;81.60;;;;;;5207418;28;20085;-33
2021/12/05 18:47:32;;;;;;;38.47;29.33;;;14.10;81.70;;;;;;5222603;28;20491;-31